Time;durP1;ratioP1;P1;durP2;ratioP2;P2;SDS_P1;SDS_P2;PMS_P1;PMS_P2;Temp;Humidity;BMP_temperature;BMP_pressure;BME280_temperature;BME280_humidity;BME280_pressure;Samples;Min_cycle;Max_cycle;Signal;HPM_P1;HPM_P2
2023/09/10 07:23:17;;;;;;;27.30;24.70;;;;;;;-145.79;78.88;76743.56;5330679;27;20729;-67
2023/09/10 07:25:48;;;;;;;26.02;23.65;;;;;;;-145.79;78.99;76737.19;5331745;28;20027;-67
2023/09/10 07:28:20;;;;;;;25.52;23.05;;;;;;;-145.79;78.90;76732.97;5330817;27;20130;-67
2023/09/10 07:30:51;;;;;;;24.38;22.08;;;;;;;-145.79;78.51;76722.34;5329808;27;20099;-67
2023/09/10 07:33:23;;;;;;;23.73;21.58;;;;;;;-145.79;78.49;76716.00;5330995;27;20382;-68
2023/09/10 07:35:55;;;;;;;23.42;21.27;;;;;;;-145.79;78.42;76709.66;5313247;28;20113;-67
2023/09/10 07:38:26;;;;;;;24.38;22.05;;;;;;;-145.79;78.01;76699.06;5317410;27;20023;-67
2023/09/10 07:40:57;;;;;;;23.30;21.05;;;;;;;-145.79;77.95;76686.34;5320991;28;20107;-67
2023/09/10 07:43:29;;;;;;;23.02;20.85;;;;;;;-145.79;77.55;76677.84;5334144;27;20466;-68
2023/09/10 07:46:00;;;;;;;22.85;20.65;;;;;;;-145.79;77.83;76663.03;5328027;27;20105;-67
2023/09/10 07:48:32;;;;;;;21.23;19.13;;;;;;;-145.79;76.77;76660.91;5314518;28;20049;-68
2023/09/10 07:51:03;;;;;;;21.50;19.55;;;;;;;-145.79;76.27;76658.78;5323745;27;20028;-68
2023/09/10 07:53:34;;;;;;;19.95;18.08;;;;;;;-145.79;75.76;76643.94;5324720;28;20015;-68
2023/09/10 07:56:06;;;;;;;19.67;17.85;;;;;;;-145.79;74.55;76639.72;5326543;27;20059;-68
2023/09/10 07:58:38;;;;;;;18.83;16.75;;;;;;;-145.79;74.77;76629.13;5328184;28;20107;-68
2023/09/10 08:01:09;;;;;;;18.45;16.55;;;;;;;-145.79;74.47;76627.00;5329616;28;20115;-67
2023/09/10 08:03:42;;;;;;;19.60;17.60;;;;;;;-145.79;74.42;76618.53;5331199;28;20134;-67
2023/09/10 08:06:15;;;;;;;18.83;16.98;;;;;;;-145.79;73.69;76614.28;5318137;27;20089;-67
2023/09/10 08:08:46;;;;;;;16.88;15.20;;;;;;;-145.79;73.56;76614.28;5325441;28;20027;-68
2023/09/10 08:11:17;;;;;;;17.85;15.57;;;;;;;-145.79;73.32;76605.81;5330825;28;20552;-68
2023/09/10 08:13:50;;;;;;;16.08;14.25;;;;;;;-145.79;73.27;76601.56;5322349;27;20020;-67
2023/09/10 08:16:22;;;;;;;15.48;13.88;;;;;;;-145.79;72.90;76584.59;5333825;27;20437;-68
2023/09/10 08:18:53;;;;;;;17.58;13.48;;;;;;;-145.79;72.64;76582.50;5323706;28;20106;-68
2023/09/10 08:21:24;;;;;;;15.48;13.52;;;;;;;-145.79;72.26;76571.91;5326766;28;20044;-68
2023/09/10 08:23:56;;;;;;;16.00;14.45;;;;;;;-145.79;71.68;76557.06;5323770;27;20066;-68
2023/09/10 08:26:27;;;;;;;15.32;13.80;;;;;;;-145.79;71.30;76550.69;5329638;28;20030;-69
2023/09/10 08:28:58;;;;;;;15.18;12.25;;;;;;;-145.79;71.14;76538.00;5326828;28;20036;-68
2023/09/10 08:31:30;;;;;;;18.38;13.27;;;;;;;-145.79;70.86;76523.16;5330058;27;20028;-69
2023/09/10 08:34:01;;;;;;;13.07;11.82;;;;;;;-145.79;70.66;76510.44;5321754;28;20024;-68
2023/09/10 08:36:32;;;;;;;16.27;13.23;;;;;;;-145.79;69.95;76512.56;5304325;28;20059;-68
2023/09/10 08:39:04;;;;;;;14.27;11.88;;;;;;;-145.79;69.68;76499.84;5308799;28;20043;-67
2023/09/10 08:41:54;;;;;;;15.93;12.20;;;;;;;-145.79;69.76;76499.84;5308003;28;20024;-68
2023/09/10 08:44:28;;;;;;;13.35;10.95;;;;;;;-145.79;69.41;76497.72;5316732;28;20077;-69
2023/09/10 08:47:01;;;;;;;12.80;11.40;;;;;;;-145.79;69.47;76478.66;5316429;28;20074;-68
2023/09/10 08:49:34;;;;;;;12.93;11.63;;;;;;;-145.79;69.17;76474.41;5299727;28;20099;-67
2023/09/10 08:52:07;;;;;;;14.70;11.45;;;;;;;-145.79;69.31;76453.22;5312723;28;20028;-69
2023/09/10 08:54:38;;;;;;;15.63;11.80;;;;;;;-145.79;69.04;76448.97;5301350;28;20031;-68
2023/09/10 08:57:12;;;;;;;13.50;11.95;;;;;;;-145.79;68.86;76444.75;5316685;28;20027;-69
2023/09/10 08:59:47;;;;;;;16.92;12.18;;;;;;;-145.79;69.03;76436.28;5294606;28;20100;-67
2023/09/10 09:02:18;;;;;;;14.13;10.85;;;;;;;-145.79;69.12;76425.66;5309888;28;20100;-67
2023/09/10 09:04:50;;;;;;;13.00;10.50;;;;;;;-145.79;67.79;76412.97;5310103;28;20027;-67
2023/09/10 09:07:26;;;;;;;15.13;11.68;;;;;;;-145.79;67.98;76410.84;5312545;28;20039;-68
2023/09/10 09:10:02;;;;;;;14.40;11.45;;;;;;;-145.79;68.36;76402.38;5317781;28;20040;-68
2023/09/10 09:12:35;;;;;;;12.55;11.35;;;;;;;-145.79;67.94;76376.94;5314493;28;20483;-68
2023/09/10 09:15:08;;;;;;;13.93;11.00;;;;;;;-145.79;67.41;76357.84;5318173;28;20034;-66
2023/09/10 09:17:41;;;;;;;12.75;10.48;;;;;;;-145.79;68.26;76334.56;5313380;28;20039;-68
2023/09/10 09:20:16;;;;;;;15.25;10.38;;;;;;;-145.79;67.07;76334.56;5318667;28;20087;-67
2023/09/10 09:22:51;;;;;;;10.10;9.10;;;;;;;-145.79;66.84;76338.78;5315579;28;20048;-68
2023/09/10 09:25:23;;;;;;;;;;;;;;;-145.79;66.54;76319.72;5310466;28;20021;-67
2023/09/10 09:27:55;;;;;;;15.07;11.73;;;;;;;-145.79;66.33;76311.25;5312158;28;20325;-67
2023/09/10 09:30:27;;;;;;;12.15;10.30;;;;;;;-145.79;65.92;76296.41;5313036;28;20352;-68
2023/09/10 09:32:58;;;;;;;10.95;9.88;;;;;;;-145.79;65.48;76279.47;5312845;28;20032;-68
2023/09/10 09:35:32;;;;;;;9.75;8.80;;;;;;;-145.79;64.94;76283.69;5296285;28;20021;-69
2023/09/10 09:38:05;;;;;;;13.30;9.82;;;;;;;-145.79;64.43;76281.56;5309793;28;20115;-69
2023/09/10 09:40:37;;;;;;;11.75;9.27;;;;;;;-145.79;63.72;76275.22;5317486;28;20496;-69
2023/09/10 09:43:09;;;;;;;15.30;9.20;;;;;;;-145.79;63.42;76270.97;5315367;28;20114;-67
2023/09/10 09:45:41;;;;;;;9.30;8.32;;;;;;;-145.79;63.50;76254.03;5306748;28;20034;-68
2023/09/10 09:48:13;;;;;;;9.07;7.60;;;;;;;-145.79;62.57;76258.25;5315637;28;20409;-68
2023/09/10 09:50:47;;;;;;;10.63;8.85;;;;;;;-145.79;61.37;76222.25;5314045;28;20043;-67
2023/09/10 09:53:18;;;;;;;9.25;8.05;;;;;;;-145.79;60.93;76234.97;5315058;28;20103;-69
2023/09/10 09:55:53;;;;;;;10.63;8.50;;;;;;;-145.79;60.85;76218.00;5301715;28;20546;-69
2023/09/10 09:58:25;;;;;;;10.05;9.25;;;;;;;-145.79;61.04;76211.66;5308425;28;20025;-68
2023/09/10 10:00:57;;;;;;;9.55;8.52;;;;;;;-145.79;60.36;76198.94;5308973;28;20046;-68
2023/09/10 10:03:29;;;;;;;9.45;7.70;;;;;;;-145.79;59.44;76188.34;5312338;28;20043;-68
2023/09/10 10:06:02;;;;;;;13.20;6.60;;;;;;;-145.79;57.99;76173.50;5315654;28;20435;-68
2023/09/10 10:08:33;;;;;;;52.75;47.63;;;;;;;-145.79;58.37;76167.16;5310661;28;20471;-68
2023/09/10 10:11:05;;;;;;;16.73;9.60;;;;;;;-145.79;56.40;76152.31;5314581;28;20030;-68
2023/09/10 10:13:36;;;;;;;10.77;7.10;;;;;;;-145.79;56.80;76160.78;5313177;28;20490;-68
2023/09/10 10:16:08;;;;;;;8.68;6.60;;;;;;;-145.79;56.60;76143.84;5303224;28;20023;-67
2023/09/10 10:18:40;;;;;;;12.18;9.63;;;;;;;-145.79;56.07;76135.38;5310306;27;20115;-68
2023/09/10 10:21:12;;;;;;;12.25;6.13;;;;;;;-145.79;55.00;76135.38;5312554;28;20177;-68
2023/09/10 10:23:45;;;;;;;8.48;6.20;;;;;;;-145.79;54.89;76122.66;5307920;28;20027;-68
2023/09/10 10:26:16;;;;;;;9.18;5.93;;;;;;;-145.79;54.82;76101.47;5316892;28;20416;-68
2023/09/10 10:28:51;;;;;;;8.23;6.28;;;;;;;-145.79;54.09;76105.69;5315884;28;20024;-67
2023/09/10 10:31:28;;;;;;;10.02;5.70;;;;;;;-145.79;53.41;76092.97;5310330;28;20028;-67
2023/09/10 10:34:11;;;;;;;9.02;5.57;;;;;;;-145.79;53.60;76103.56;5311874;28;20034;-67
2023/09/10 10:36:55;;;;;;;9.48;6.30;;;;;;;-145.79;53.19;76097.22;5308742;28;20517;-68
2023/09/10 10:40:11;;;;;;;16.47;12.90;;;;;;;-145.79;52.99;76073.91;5309720;28;20035;-67
2023/09/10 10:42:57;;;;;;;9.95;6.13;;;;;;;-145.79;52.95;76052.72;5238744;28;20037;-67
2023/09/10 10:45:31;;;;;;;15.48;13.85;;;;;;;-145.79;53.03;76046.38;5307414;28;20034;-68
2023/09/10 10:48:07;;;;;;;11.68;6.75;;;;;;;-145.79;52.95;76037.88;5311466;28;20031;-67
2023/09/10 10:50:39;;;;;;;7.38;5.88;;;;;;;-145.79;52.77;76037.88;5310094;28;20020;-68
2023/09/10 10:53:29;;;;;;;8.98;5.65;;;;;;;-145.79;52.64;76037.88;5301376;28;20032;-68
2023/09/10 10:56:03;;;;;;;12.52;6.28;;;;;;;-145.79;52.35;76025.19;5302154;28;20036;-67
2023/09/10 10:58:39;;;;;;;8.15;5.82;;;;;;;-145.79;52.03;76010.34;5314206;28;20031;-67
2023/09/10 11:01:14;;;;;;;6.63;5.60;;;;;;;-145.79;51.42;76008.22;5311785;28;20377;-66
2023/09/10 11:03:47;;;;;;;7.30;6.22;;;;;;;-145.79;51.81;75999.75;5312164;28;20046;-66
2023/09/10 11:06:18;;;;;;;8.73;5.53;;;;;;;-145.79;51.85;75999.75;5312603;28;20027;-66
2023/09/10 11:08:50;;;;;;;9.43;6.07;;;;;;;-145.79;51.89;75976.44;5314565;28;20032;-66
2023/09/10 11:11:39;;;;;;;7.40;5.72;;;;;;;-145.79;51.93;75965.84;5300091;28;20016;-67
2023/09/10 11:14:11;;;;;;;8.57;6.22;;;;;;;-145.79;51.42;75961.63;5306647;28;20039;-66
2023/09/10 11:16:43;;;;;;;8.48;6.68;;;;;;;-145.79;51.74;75957.38;5311137;28;20016;-66
2023/09/10 11:19:47;;;;;;;8.85;5.85;;;;;;;-145.79;51.01;75934.06;5315910;28;20019;-67
2023/09/10 11:22:18;;;;;;;9.57;5.47;;;;;;;-145.79;50.57;75927.72;5300394;28;20052;-67
2023/09/10 11:25:05;;;;;;;8.85;5.50;;;;;;;-145.79;50.72;75931.94;5313579;28;20068;-68
2023/09/10 11:27:37;;;;;;;11.63;5.65;;;;;;;-145.79;49.19;75921.34;5308384;28;20023;-69
2023/09/10 11:30:13;;;;;;;9.25;7.45;;;;;;;-145.79;49.37;75900.16;5308036;28;20467;-64
2023/09/10 11:32:44;;;;;;;7.15;4.97;;;;;;;-145.79;48.77;75921.34;5299246;28;20058;-65
2023/09/10 11:35:19;;;;;;;10.02;5.45;;;;;;;-145.79;48.47;75902.28;5306059;28;20473;-66
2023/09/10 11:37:57;;;;;;;10.30;4.95;;;;;;;-145.79;48.71;75885.34;5310241;28;20027;-64
2023/09/10 11:40:29;;;;;;;7.75;4.82;;;;;;;-145.79;47.94;75891.69;5311625;28;20051;-64
2023/09/10 11:43:00;;;;;;;10.00;5.53;;;;;;;-145.79;49.51;75883.22;5303713;28;20068;-67
2023/09/10 11:45:33;;;;;;;37.60;34.30;;;;;;;-145.79;49.38;75855.66;5309549;28;20458;-67
2023/09/10 11:48:06;;;;;;;14.50;13.00;;;;;;;-145.79;48.79;75872.63;5315031;28;20394;-68
2023/09/10 11:50:37;;;;;;;7.20;5.43;;;;;;;-145.79;48.43;75855.66;5311172;28;20028;-68
2023/09/10 11:53:09;;;;;;;11.50;6.20;;;;;;;-145.79;48.33;75842.97;5308249;28;20035;-68
2023/09/10 11:55:41;;;;;;;13.00;6.05;;;;;;;-145.79;47.37;75836.59;5315171;28;20032;-68
2023/09/10 11:58:12;;;;;;;6.28;5.50;;;;;;;-145.79;48.13;75823.88;5306103;28;20467;-66
2023/09/10 12:00:44;;;;;;;9.65;5.13;;;;;;;-145.79;47.75;75823.88;5312518;28;20461;-68
2023/09/10 12:03:15;;;;;;;9.55;5.95;;;;;;;-145.79;47.35;75809.06;5314653;28;20088;-68
2023/09/10 12:05:47;;;;;;;6.50;5.75;;;;;;;-145.79;46.85;75804.81;5306378;28;20047;-68
2023/09/10 12:08:18;;;;;;;8.52;5.10;;;;;;;-145.79;46.97;75783.63;5317042;28;20620;-68
2023/09/10 12:10:53;;;;;;;9.18;5.90;;;;;;;-145.79;47.33;75804.81;5315577;28;20023;-68
2023/09/10 12:13:24;;;;;;;10.30;5.93;;;;;;;-145.79;47.41;75783.63;5315644;28;20059;-68
2023/09/10 12:15:56;;;;;;;9.68;6.72;;;;;;;-145.79;46.76;75785.75;5316162;28;20020;-69
2023/09/10 12:18:28;;;;;;;9.18;6.07;;;;;;;-145.79;46.71;75762.44;5312984;28;20074;-68
2023/09/10 12:21:00;;;;;;;9.15;5.00;;;;;;;-145.79;45.67;75753.97;5319056;28;20016;-68
2023/09/10 12:23:32;;;;;;;9.68;5.18;;;;;;;-145.79;44.62;75745.50;5317002;28;20506;-68
2023/09/10 12:26:04;;;;;;;11.57;6.75;;;;;;;-145.79;44.07;75751.84;5317810;28;20102;-67
2023/09/10 12:28:35;;;;;;;11.48;5.10;;;;;;;-145.79;43.60;75737.00;5312048;28;20019;-68
2023/09/10 12:31:07;;;;;;;9.75;5.40;;;;;;;-145.79;44.17;75724.31;5315243;28;20024;-69
2023/09/10 12:33:40;;;;;;;8.35;6.80;;;;;;;-145.79;44.64;75711.59;5312068;28;20046;-69
2023/09/10 12:36:12;;;;;;;10.15;5.45;;;;;;;-145.79;43.86;75728.53;5317800;28;20039;-68
2023/09/10 12:38:43;;;;;;;7.53;4.90;;;;;;;-145.79;43.22;75707.34;5306624;28;20084;-68
2023/09/10 12:41:16;;;;;;;7.85;5.35;;;;;;;-145.79;42.81;75711.59;5318498;28;20072;-67
2023/09/10 12:43:47;;;;;;;11.95;7.72;;;;;;;-145.79;44.74;75701.00;5319241;28;20015;-68
2023/09/10 12:46:19;;;;;;;14.65;6.50;;;;;;;-145.79;45.04;75703.13;5315619;28;20016;-68
2023/09/10 12:48:51;;;;;;;9.27;5.78;;;;;;;-145.79;45.34;75677.69;5314876;28;20034;-68
2023/09/10 12:51:23;;;;;;;7.53;5.38;;;;;;;-145.79;45.48;75686.16;5310760;28;20471;-67
2023/09/10 12:53:54;;;;;;;6.68;4.65;;;;;;;-145.79;45.00;75662.84;5318501;28;20428;-67
2023/09/10 12:56:27;;;;;;;9.70;5.28;;;;;;;-145.79;44.27;75656.50;5316640;28;20023;-68
2023/09/10 12:58:58;;;;;;;7.03;5.45;;;;;;;-145.79;43.83;75650.16;5314428;28;20110;-67
2023/09/10 13:01:29;;;;;;;6.78;5.03;;;;;;;-145.79;43.29;75620.47;5315549;28;20118;-66
2023/09/10 13:04:00;;;;;;;8.00;6.20;;;;;;;-145.79;42.80;75601.41;5314876;28;20490;-67
2023/09/10 13:06:32;;;;;;;11.32;5.68;;;;;;;-145.79;42.06;75605.66;5316102;28;20093;-67
2023/09/10 13:09:04;;;;;;;7.15;5.70;;;;;;;-145.79;42.09;75605.66;5318993;28;20028;-67
2023/09/10 13:11:37;;;;;;;11.13;4.72;;;;;;;-145.79;42.41;75584.47;5316371;28;20038;-67
2023/09/10 13:14:08;;;;;;;8.32;6.07;;;;;;;-145.79;42.99;75584.47;5316369;28;20491;-67
2023/09/10 13:16:39;;;;;;;10.00;5.93;;;;;;;-145.79;42.25;75584.47;5316699;28;20068;-68
2023/09/10 13:19:11;;;;;;;7.57;5.28;;;;;;;-145.79;42.09;75580.22;5318165;28;20034;-67
2023/09/10 13:21:42;;;;;;;6.82;5.13;;;;;;;-145.79;41.42;75565.41;5309800;28;20490;-67
2023/09/10 13:24:13;;;;;;;8.75;6.00;;;;;;;-145.79;41.83;75537.84;5313626;28;20028;-68
2023/09/10 13:26:45;;;;;;;9.18;6.07;;;;;;;-145.79;41.01;75559.03;5312515;28;20032;-68
2023/09/10 13:29:16;;;;;;;10.20;5.70;;;;;;;-145.79;41.51;75544.22;5317224;28;20032;-70
2023/09/10 13:31:47;;;;;;;11.68;5.57;;;;;;;-145.79;41.19;75544.22;5315023;28;20026;-70
2023/09/10 13:34:19;;;;;;;10.38;5.38;;;;;;;-145.79;41.23;75539.97;5305179;28;20089;-69
2023/09/10 13:36:50;;;;;;;11.00;5.75;;;;;;;-145.79;41.57;75533.63;5318744;28;20015;-67
2023/09/10 13:39:21;;;;;;;10.20;6.78;;;;;;;-145.79;41.70;75525.16;5313925;28;20051;-68
2023/09/10 13:41:53;;;;;;;6.00;5.00;;;;;;;-145.79;40.63;75525.16;5307803;28;20032;-68
2023/09/10 13:44:24;;;;;;;8.48;4.82;;;;;;;-145.79;40.75;75518.78;5318077;28;20511;-67
2023/09/10 13:46:56;;;;;;;6.82;5.25;;;;;;;-145.79;40.53;75523.03;5317863;28;20020;-68
2023/09/10 13:49:27;;;;;;;18.40;16.52;;;;;;;-145.79;40.64;75512.44;5313448;28;20020;-68
2023/09/10 13:51:58;;;;;;;8.52;5.82;;;;;;;-145.79;40.08;75514.56;5313777;28;20107;-67
2023/09/10 13:54:30;;;;;;;8.30;5.55;;;;;;;-145.79;40.12;75516.66;5315722;28;20024;-67
2023/09/10 13:57:01;;;;;;;8.10;4.97;;;;;;;-145.79;40.20;75516.66;5309255;28;20078;-68
2023/09/10 13:59:32;;;;;;;7.75;5.13;;;;;;;-145.79;40.31;75512.44;5316016;28;20043;-67
2023/09/10 14:02:03;;;;;;;5.47;4.90;;;;;;;-145.79;40.26;75506.06;5316647;27;20485;-67
2023/09/10 14:04:35;;;;;;;9.02;6.93;;;;;;;-145.79;39.94;75493.38;5308772;28;20023;-67
2023/09/10 14:07:08;;;;;;;6.47;5.03;;;;;;;-145.79;40.05;75482.78;5317632;28;20023;-68
2023/09/10 14:09:40;;;;;;;8.93;5.07;;;;;;;-145.79;39.58;75514.56;5311267;28;20028;-67
2023/09/10 14:12:11;;;;;;;5.97;5.07;;;;;;;-145.79;40.38;75491.25;5313519;28;20043;-68
2023/09/10 14:14:42;;;;;;;8.65;5.60;;;;;;;-145.79;40.12;75497.59;5315455;28;20062;-67
2023/09/10 14:17:13;;;;;;;9.98;5.22;;;;;;;-145.79;40.48;75510.31;5311048;28;20107;-67
2023/09/10 14:19:45;;;;;;;10.45;6.30;;;;;;;-145.79;39.85;75495.47;5315432;28;20099;-67
2023/09/10 14:22:16;;;;;;;9.32;5.60;;;;;;;-145.79;39.58;75503.97;5313801;28;20533;-67
2023/09/10 14:24:48;;;;;;;10.40;6.70;;;;;;;-145.79;40.00;75501.84;5313881;28;20024;-68
2023/09/10 14:27:19;;;;;;;7.88;5.38;;;;;;;-145.79;40.03;75527.25;5317298;28;20382;-68
2023/09/10 14:29:50;;;;;;;7.05;5.32;;;;;;;-145.79;39.36;75499.72;5310577;28;20035;-68
2023/09/10 14:32:22;;;;;;;9.18;6.45;;;;;;;-145.79;40.11;75531.50;5310424;28;20031;-68
2023/09/10 14:34:53;;;;;;;7.63;5.90;;;;;;;-145.79;40.45;75529.38;5311120;28;20355;-68
2023/09/10 14:37:24;;;;;;;7.07;5.53;;;;;;;-145.79;40.84;75520.91;5316985;28;20383;-68
2023/09/10 14:39:56;;;;;;;7.88;5.82;;;;;;;-145.79;40.61;75506.06;5315471;28;20015;-68
2023/09/10 14:42:27;;;;;;;10.50;5.60;;;;;;;-145.79;41.29;75514.56;5313073;28;20032;-68
2023/09/10 14:44:59;;;;;;;9.75;5.35;;;;;;;-145.79;40.80;75493.38;5312310;28;20032;-68
2023/09/10 14:47:33;;;;;;;9.82;5.10;;;;;;;-145.79;40.65;75512.44;5316800;28;20019;-68
2023/09/10 14:50:06;;;;;;;14.95;13.55;;;;;;;-145.79;41.16;75506.06;5302691;28;20086;-68
2023/09/10 14:52:37;;;;;;;6.90;6.03;;;;;;;-145.79;40.96;75508.19;5316018;28;20028;-68
2023/09/10 14:55:09;;;;;;;7.82;6.10;;;;;;;-145.79;41.77;75523.03;5315968;28;20363;-68
2023/09/10 14:57:41;;;;;;;6.28;5.50;;;;;;;-145.79;41.20;75510.31;5312707;28;20034;-66
2023/09/10 15:00:12;;;;;;;9.23;5.55;;;;;;;-145.79;41.15;75516.66;5311502;28;20070;-68
2023/09/10 15:02:44;;;;;;;5.95;5.38;;;;;;;-145.79;41.00;75529.38;5316368;28;20494;-68
2023/09/10 15:05:15;;;;;;;9.63;5.90;;;;;;;-145.79;41.19;75520.91;5316539;28;20085;-67
2023/09/10 15:07:46;;;;;;;7.13;5.32;;;;;;;-145.79;41.10;75527.25;5303930;28;20024;-67
2023/09/10 15:10:18;;;;;;;8.23;5.65;;;;;;;-145.79;41.23;75520.91;5312357;28;20498;-68
2023/09/10 15:12:49;;;;;;;6.72;5.40;;;;;;;-145.79;41.69;75535.75;5315710;28;20069;-68
2023/09/10 15:15:20;;;;;;;8.73;5.43;;;;;;;-145.79;41.65;75531.50;5316369;28;20027;-68
2023/09/10 15:17:52;;;;;;;7.95;5.45;;;;;;;-145.79;42.13;75539.97;5313094;28;20024;-68
2023/09/10 15:20:23;;;;;;;8.55;6.60;;;;;;;-145.79;41.86;75531.50;5311402;28;20032;-68
2023/09/10 15:22:54;;;;;;;7.50;6.00;;;;;;;-145.79;41.89;75546.34;5314948;28;20084;-67
2023/09/10 15:25:25;;;;;;;6.30;5.70;;;;;;;-145.79;41.76;75537.84;5311646;28;20097;-69
2023/09/10 15:27:57;;;;;;;7.57;5.50;;;;;;;-145.79;41.87;75546.34;5314081;28;20076;-68
2023/09/10 15:30:28;;;;;;;10.00;5.35;;;;;;;-145.79;41.76;75554.81;5316076;28;20040;-68
2023/09/10 15:32:59;;;;;;;7.93;5.50;;;;;;;-145.79;41.63;75535.75;5313485;28;20028;-68
2023/09/10 15:35:31;;;;;;;7.95;6.82;;;;;;;-145.79;41.37;75546.34;5311453;28;20020;-68
2023/09/10 15:38:02;;;;;;;9.10;6.30;;;;;;;-145.79;41.47;75542.09;5314321;28;20107;-68
2023/09/10 15:40:34;;;;;;;13.15;6.85;;;;;;;-145.79;41.32;75525.16;5309753;28;20017;-68
2023/09/10 15:43:06;;;;;;;8.77;6.00;;;;;;;-145.79;41.44;75548.44;5311626;28;20153;-68
2023/09/10 15:45:41;;;;;;;6.65;5.45;;;;;;;-145.79;41.62;75542.09;5320267;28;20084;-67
2023/09/10 15:48:12;;;;;;;8.05;6.10;;;;;;;-145.79;40.83;75546.34;5317567;28;20051;-68
2023/09/10 15:50:43;;;;;;;9.80;6.18;;;;;;;-145.79;41.43;75537.84;5316469;28;20024;-67
2023/09/10 15:53:15;;;;;;;6.15;5.25;;;;;;;-145.79;41.87;75542.09;5317377;28;20055;-68
2023/09/10 15:55:46;;;;;;;11.90;6.13;;;;;;;-145.79;42.22;75550.56;5315117;28;20032;-67
2023/09/10 15:58:17;;;;;;;8.35;7.53;;;;;;;-145.79;41.95;75542.09;5309357;28;20024;-68
2023/09/10 16:00:49;;;;;;;11.07;7.10;;;;;;;-145.79;41.84;75537.84;5320253;28;20485;-67
2023/09/10 16:03:20;;;;;;;7.43;5.82;;;;;;;-145.79;41.79;75527.25;5318113;28;20393;-67
2023/09/10 16:05:51;;;;;;;9.55;6.20;;;;;;;-145.79;42.48;75529.38;5315973;28;20028;-67
2023/09/10 16:08:27;;;;;;;10.52;6.30;;;;;;;-145.79;41.75;75529.38;5316831;28;20032;-68
2023/09/10 16:10:58;;;;;;;11.90;5.55;;;;;;;-145.79;41.85;75520.91;5319191;28;20045;-68
2023/09/10 16:13:29;;;;;;;8.18;5.88;;;;;;;-145.79;42.65;75531.50;5318782;28;20027;-67
2023/09/10 16:16:01;;;;;;;9.52;6.15;;;;;;;-145.79;42.62;75520.91;5314102;28;20032;-67
2023/09/10 16:18:32;;;;;;;7.25;6.03;;;;;;;-145.79;41.87;75525.16;5315529;28;20498;-68
2023/09/10 16:21:04;;;;;;;7.95;5.63;;;;;;;-145.79;41.82;75527.25;5318954;28;20039;-68
2023/09/10 16:23:36;;;;;;;8.80;6.30;;;;;;;-145.79;41.56;75537.84;5318491;28;20068;-68
2023/09/10 16:26:07;;;;;;;6.70;5.57;;;;;;;-145.79;41.32;75539.97;5315696;28;20494;-68
2023/09/10 16:28:39;;;;;;;7.38;6.60;;;;;;;-145.79;42.27;75535.75;5315607;28;20107;-68
2023/09/10 16:31:10;;;;;;;8.98;6.38;;;;;;;-145.79;42.60;75527.25;5315934;28;20462;-68
2023/09/10 16:33:42;;;;;;;6.70;5.72;;;;;;;-145.79;42.93;75542.09;5314799;28;20483;-68
2023/09/10 16:36:13;;;;;;;9.35;5.88;;;;;;;-145.79;41.94;75539.97;5319079;28;20047;-68
2023/09/10 16:38:44;;;;;;;8.30;5.57;;;;;;;-145.79;42.20;75550.56;5318627;28;20478;-68
2023/09/10 16:41:15;;;;;;;7.03;6.10;;;;;;;-145.79;42.28;75548.44;5315328;28;20020;-68
2023/09/10 16:43:47;;;;;;;7.18;5.65;;;;;;;-145.79;42.59;75556.94;5315323;28;20024;-68
2023/09/10 16:46:18;;;;;;;8.52;5.68;;;;;;;-145.79;43.17;75554.81;5317537;28;20644;-68
2023/09/10 16:48:49;;;;;;;7.68;5.50;;;;;;;-145.79;43.11;75559.03;5308668;28;20028;-68
2023/09/10 16:51:22;;;;;;;6.85;5.75;;;;;;;-145.79;43.53;75563.28;5316414;28;20030;-68
2023/09/10 16:53:53;;;;;;;10.23;6.00;;;;;;;-145.79;43.93;75576.00;5318651;28;20035;-68
